Stations météo

réclame
Mon MeteoGroup
Apt, France (7657): Température de l'air & dewpoint: 17.05.2018 19:00:00 - 23.05.2018 19:00:00 (CEST)Apt, France (7657): Vitesse du vent & gusts: 17.05.2018 19:00:00 - 23.05.2018 19:00:00 (CEST)Apt, France (7657): Direction du vent: 17.05.2018 19:00:00 - 23.05.2018 19:00:00 (CEST)Apt, France (7657): Quantités de précipitations: 17.05.2018 19:00:00 - 23.05.2018 19:00:00 (CEST)
Date & Time tt [°C] td [°C] ff [km/h] ff [knt] fx [km/h] fx [knt] dd rr [mm]
23.05.2018 19:00:00 - - - - - - - -
23.05.2018 18:00:00 18,6 10,9 8 4 26 14 NNW 0,0
23.05.2018 17:00:00 16,8 11,3 16 9 31 17 NNW 0,0
23.05.2018 16:00:00 16,3 10,8 11 6 29 16 N 0,2
23.05.2018 15:00:00 14,8 12,3 11 6 29 16 SSW 1,0
23.05.2018 14:00:00 17,6 13,7 9 5 16 9 SE -
23.05.2018 13:00:00 18,4 11,2 4 2 21 11 N 0,0
23.05.2018 12:00:00 18,8 12,3 5 3 18 10 NNW 0,0
23.05.2018 11:00:00 17,3 12,2 9 5 21 11 NNW 0,0
23.05.2018 10:00:00 16,6 11,1 5 3 13 7 NNW 0,0
23.05.2018 09:00:00 14,2 11,2 8 4 13 7 NNW 0,0
23.05.2018 08:00:00 10,4 10,2 4 2 9 5 N -
23.05.2018 07:00:00 8,0 7,9 0 0 5 3 N 0,0
23.05.2018 06:00:00 7,3 7,0 5 3 8 4 N 0,0
23.05.2018 05:00:00 7,1 6,7 2 1 11 6 W 0,0
23.05.2018 04:00:00 8,3 8,0 5 3 9 5 NNW 0,0
23.05.2018 03:00:00 8,7 8,2 5 3 11 6 N 0,0
23.05.2018 02:00:00 9,0 8,7 2 1 9 5 WNW -
23.05.2018 01:00:00 8,3 7,7 2 1 8 4 W 0,0
23.05.2018 00:00:00 9,6 8,8 5 3 9 5 W 0,0
22.05.2018 23:00:00 10,6 10,1 8 4 9 5 W 0,0
22.05.2018 22:00:00 10,6 10,1 8 4 9 5 W 0,0
22.05.2018 21:00:00 11,4 10,9 8 4 13 7 NNW 0,4
22.05.2018 20:00:00 11,7 11,2 8 4 15 8 NNW -
22.05.2018 19:00:00 11,7 11,2 5 3 9 5 NNE 4,0
22.05.2018 18:00:00 11,8 10,9 4 2 9 5 NNW 6,0
22.05.2018 17:00:00 12,4 11,0 8 4 18 10 NE 0,8
22.05.2018 16:00:00 14,4 11,9 4 2 21 11 WNW 0,0
22.05.2018 15:00:00 15,7 11,7 11 6 29 16 SSW 0,0
22.05.2018 14:00:00 16,4 12,6 8 4 18 10 SE -
22.05.2018 13:00:00 14,8 13,0 13 7 21 11 SE 0,0
22.05.2018 12:00:00 14,9 12,4 4 2 15 8 E 0,0
22.05.2018 11:00:00 14,5 11,5 2 1 9 5 SSW 0,0
22.05.2018 10:00:00 13,0 10,9 5 3 16 9 N 0,0
22.05.2018 09:00:00 12,8 11,0 9 5 18 10 NW 0,0
22.05.2018 08:00:00 11,1 10,5 4 2 9 5 NNW -
22.05.2018 07:00:00 9,8 9,2 5 3 11 6 NW 0,0
22.05.2018 06:00:00 8,8 8,3 0 0 11 6 N 0,0
22.05.2018 05:00:00 9,2 8,4 4 2 9 5 WNW 0,0
22.05.2018 04:00:00 9,8 9,2 4 2 11 6 ESE 0,0
22.05.2018 03:00:00 10,2 9,4 5 3 9 5 NW 0,0
22.05.2018 02:00:00 10,1 9,3 0 0 9 5 N -
22.05.2018 01:00:00 9,9 9,3 4 2 5 3 W 0,0
22.05.2018 00:00:00 9,7 8,8 4 2 11 6 N 0,0
21.05.2018 23:00:00 10,1 9,3 4 2 8 4 NW 0,0
21.05.2018 22:00:00 10,7 9,6 4 2 9 5 W 0,0
21.05.2018 21:00:00 11,8 10,9 5 3 8 4 WSW 0,0
21.05.2018 20:00:00 11,9 10,5 2 1 13 7 NW -
21.05.2018 19:00:00 11,9 10,0 9 5 24 13 E 0,4
21.05.2018 18:00:00 13,1 10,6 16 9 29 16 SE 0,4
21.05.2018 17:00:00 15,8 9,2 8 4 16 9 NW 0,0
21.05.2018 16:00:00 15,3 10,5 11 6 28 15 NW 0,0
21.05.2018 15:00:00 14,0 8,8 9 5 37 20 SSE 0,2
21.05.2018 14:00:00 17,0 9,4 21 11 34 18 ESE -
21.05.2018 13:00:00 19,4 9,8 8 4 21 11 SE 0,0
21.05.2018 12:00:00 18,4 8,4 9 5 18 10 SE 0,0
21.05.2018 11:00:00 18,4 8,9 5 3 16 9 SE 0,0
21.05.2018 10:00:00 17,9 9,5 4 2 11 6 ESE 0,0
21.05.2018 09:00:00 16,5 11,0 4 2 8 4 ENE 0,0
21.05.2018 08:00:00 11,5 9,6 0 0 4 2 N -
21.05.2018 07:00:00 6,4 6,1 0 0 5 3 N 0,0
21.05.2018 06:00:00 4,3 3,9 0 0 8 4 N 0,0
21.05.2018 05:00:00 4,4 3,7 4 2 8 4 W 0,0
21.05.2018 04:00:00 5,5 4,9 2 1 4 2 WSW 0,0
21.05.2018 03:00:00 6,2 5,5 0 0 8 4 N 0,0
21.05.2018 02:00:00 6,7 5,8 2 1 8 4 WNW -
21.05.2018 01:00:00 7,9 7,5 4 2 8 4 W 0,0
21.05.2018 00:00:00 8,2 7,4 5 3 11 6 W 0,0
20.05.2018 23:00:00 9,2 8,4 8 4 9 5 WSW 0,0
20.05.2018 22:00:00 9,8 8,9 4 2 11 6 W 0,0
20.05.2018 21:00:00 11,1 10,0 5 3 9 5 W 0,0
20.05.2018 20:00:00 13,4 10,7 0 0 8 4 N -
20.05.2018 19:00:00 13,2 10,6 4 2 18 10 S 0,0
20.05.2018 18:00:00 12,2 10,9 11 6 22 12 SE 3,0
20.05.2018 17:00:00 12,7 9,3 4 2 46 25 SSE 3,0
20.05.2018 16:00:00 16,9 9,6 11 6 34 18 SSE 0,0
20.05.2018 15:00:00 18,4 11,5 15 8 29 16 WNW 0,0
20.05.2018 14:00:00 17,6 10,5 18 10 26 14 NNW -
20.05.2018 13:00:00 15,9 11,7 8 4 31 17 NW 1,0
20.05.2018 12:00:00 14,2 8,8 22 12 35 19 W 0,4
20.05.2018 11:00:00 18,2 8,7 11 6 21 11 ESE 0,0
20.05.2018 10:00:00 16,7 8,6 9 5 16 9 ESE 0,0
20.05.2018 09:00:00 15,7 9,8 4 2 9 5 SSE 0,0
20.05.2018 08:00:00 11,0 8,4 2 1 8 4 N -
20.05.2018 07:00:00 5,4 4,8 0 0 4 2 N 0,0
20.05.2018 06:00:00 4,9 4,2 2 1 8 4 W 0,0
20.05.2018 05:00:00 6,2 5,9 5 3 9 5 W 0,0
20.05.2018 04:00:00 4,7 3,8 2 1 8 4 W 0,0
20.05.2018 03:00:00 5,5 4,6 2 1 8 4 ENE 0,0
20.05.2018 02:00:00 6,9 6,3 4 2 5 3 W -
20.05.2018 01:00:00 7,8 7,4 4 2 8 4 W 0,0
20.05.2018 00:00:00 7,3 6,2 0 0 8 4 N 0,0
19.05.2018 23:00:00 8,5 7,3 2 1 11 6 NW 0,0
19.05.2018 22:00:00 9,7 7,8 4 2 8 4 W 0,0
19.05.2018 21:00:00 11,6 9,0 5 3 13 7 WSW 0,0
19.05.2018 20:00:00 15,0 8,9 8 4 21 11 SE -
19.05.2018 19:00:00 15,3 9,4 5 3 16 9 SSE 0,0
19.05.2018 18:00:00 14,9 8,6 8 4 18 10 NNE 0,0
19.05.2018 17:00:00 14,9 9,7 11 6 35 19 E 0,0
19.05.2018 16:00:00 17,0 9,9 13 7 34 18 SSW 0,0
19.05.2018 15:00:00 18,0 11,1 4 2 15 8 NNE 2,0
19.05.2018 14:00:00 13,3 9,9 5 3 29 16 S -
19.05.2018 13:00:00 17,1 10,9 13 7 26 14 N 0,0
19.05.2018 12:00:00 18,4 10,2 15 8 26 14 SE 0,0
19.05.2018 11:00:00 17,8 10,9 9 5 26 14 SE 0,0
19.05.2018 10:00:00 16,8 10,6 13 7 24 13 SE 0,0
19.05.2018 09:00:00 15,7 10,2 9 5 15 8 SE 0,0
19.05.2018 08:00:00 11,6 10,3 0 0 4 2 N -
19.05.2018 07:00:00 6,9 6,6 0 0 5 3 N 0,0
19.05.2018 06:00:00 6,0 5,7 4 2 8 4 W 0,0
19.05.2018 05:00:00 5,9 5,5 0 0 8 4 N 0,0
19.05.2018 04:00:00 6,7 6,4 4 2 8 4 W 0,0
19.05.2018 03:00:00 6,9 6,3 0 0 8 4 N 0,0
19.05.2018 02:00:00 7,5 6,9 2 1 8 4 ESE -
19.05.2018 01:00:00 8,5 7,7 2 1 5 3 WNW 0,0
19.05.2018 00:00:00 9,7 8,8 2 1 9 5 S 0,0
18.05.2018 23:00:00 11,2 10,6 4 2 13 7 ENE 0,0
18.05.2018 22:00:00 11,9 10,3 4 2 15 8 WNW 0,0
18.05.2018 21:00:00 14,1 10,9 5 3 22 12 SSE 0,0
18.05.2018 20:00:00 17,0 8,9 15 8 24 13 WSW -
18.05.2018 19:00:00 17,7 10,1 11 6 28 15 W 0,0
18.05.2018 18:00:00 18,6 10,9 15 8 28 15 W 0,0
18.05.2018 17:00:00 17,2 12,3 9 5 22 12 WNW 0,0
18.05.2018 16:00:00 13,6 11,1 13 7 21 11 NNW 0,0
18.05.2018 15:00:00 11,8 9,4 11 6 26 14 WSW 1,0
18.05.2018 14:00:00 12,3 9,1 9 5 34 18 SW -
18.05.2018 13:00:00 13,4 8,7 15 8 31 17 E 0,2
18.05.2018 12:00:00 16,7 11,2 16 9 29 16 SW 0,0
18.05.2018 11:00:00 18,3 8,5 8 4 15 8 E 0,0
18.05.2018 10:00:00 17,4 8,8 4 2 9 5 N 0,0
18.05.2018 09:00:00 15,3 10,3 4 2 9 5 NNW 0,0
18.05.2018 08:00:00 11,1 10,3 2 1 5 3 NNW -
18.05.2018 07:00:00 10,4 9,5 0 0 8 4 N 0,0
18.05.2018 06:00:00 9,9 9,1 8 4 9 5 NNW 0,0
18.05.2018 05:00:00 11,1 10,5 0 0 5 3 N 0,0
18.05.2018 04:00:00 11,3 10,8 0 0 5 3 N 0,0
18.05.2018 03:00:00 10,3 9,7 2 1 4 2 E 0,0
18.05.2018 02:00:00 11,1 10,3 2 1 8 4 S -
18.05.2018 01:00:00 11,3 10,5 0 0 5 3 N 0,0
18.05.2018 00:00:00 11,7 10,6 4 2 13 7 SSE 0,0
17.05.2018 23:00:00 12,5 10,0 5 3 13 7 SSE 0,0
17.05.2018 22:00:00 13,7 9,3 8 4 15 8 WSW 0,0
17.05.2018 21:00:00 14,9 8,6 8 4 18 10 W 0,0
17.05.2018 20:00:00 16,1 8,8 11 6 28 15 W -
17.05.2018 19:00:00 17,4 9,6 15 8 28 15 W 0,0

tt = Température de l'air
td = dewpoint
ff = Vitesse du vent
fx = gusts
dd = Direction du vent
rr = Quantités de précipitations

stations d'obs. à proximité